Time;durP1;ratioP1;P1;durP2;ratioP2;P2;SDS_P1;SDS_P2;PMS_P1;PMS_P2;Temp;Humidity;BMP_temperature;BMP_pressure;BME280_temperature;BME280_humidity;BME280_pressure;Samples;Min_cycle;Max_cycle;Signal;HPM_P1;HPM_P2
2021/01/03 00:00:58;;;;;;;13.53;10.50;;;;;;;2.79;100.00;101769.59;1938769;74;26183;-85
2021/01/03 00:03:28;;;;;;;14.97;11.30;;;;;;;2.94;100.00;101764.75;1938788;74;26204;-86
2021/01/03 00:05:58;;;;;;;14.33;11.03;;;;;;;2.93;100.00;101769.06;1938792;74;26188;-84
2021/01/03 00:08:28;;;;;;;18.53;14.10;;;;;;;2.97;100.00;101771.17;1938848;74;26175;-85
2021/01/03 00:10:58;;;;;;;13.97;10.83;;;;;;;2.82;100.00;101766.98;1938719;74;26208;-84
2021/01/03 00:13:28;;;;;;;14.23;11.43;;;;;;;2.89;100.00;101765.91;1938616;74;26588;-84
2021/01/03 00:15:58;;;;;;;14.67;11.77;;;;;;;2.97;100.00;101759.34;1938671;74;26362;-84
2021/01/03 00:18:28;;;;;;;15.13;11.20;;;;;;;2.93;100.00;101760.83;1938631;74;26246;-84
2021/01/03 00:20:58;;;;;;;13.63;11.53;;;;;;;2.86;100.00;101754.00;1938439;74;26815;-83
2021/01/03 00:23:29;;;;;;;17.87;11.40;;;;;;;2.83;100.00;101756.30;1938427;72;26204;-83
2021/01/03 00:25:59;;;;;;;16.40;12.30;;;;;;;2.92;100.00;101758.62;1938481;74;26261;-85
2021/01/03 00:28:29;;;;;;;17.30;12.90;;;;;;;2.71;100.00;101761.58;1938598;74;26269;-84
2021/01/03 00:30:59;;;;;;;18.60;12.93;;;;;;;2.66;100.00;101761.37;1938605;74;26737;-85
2021/01/03 00:33:29;;;;;;;18.67;13.53;;;;;;;2.64;100.00;101764.86;1938485;74;26293;-85
2021/01/03 00:35:59;;;;;;;15.70;12.57;;;;;;;2.72;100.00;101766.02;1938514;74;26161;-85
2021/01/03 00:38:28;;;;;;;19.67;14.10;;;;;;;2.70;100.00;101771.71;1938637;74;26183;-83
2021/01/03 00:40:58;;;;;;;17.77;13.37;;;;;;;2.69;100.00;101768.67;1938488;74;26179;-84
2021/01/03 00:43:28;;;;;;;16.57;12.33;;;;;;;2.48;100.00;101772.14;1938307;74;26258;-85
2021/01/03 00:45:58;;;;;;;15.73;12.00;;;;;;;2.55;100.00;101769.72;1938418;74;26377;-86
2021/01/03 00:48:28;;;;;;;16.40;12.10;;;;;;;2.57;100.00;101764.84;1938496;74;26183;-84
2021/01/03 00:50:58;;;;;;;16.20;11.10;;;;;;;2.48;100.00;101768.03;1938297;74;26257;-84
2021/01/03 00:53:28;;;;;;;13.73;10.63;;;;;;;2.55;100.00;101771.61;1938463;74;26241;-83
2021/01/03 00:55:58;;;;;;;14.63;11.03;;;;;;;2.63;100.00;101776.36;1938523;74;26679;-83
2021/01/03 00:58:27;;;;;;;14.43;10.23;;;;;;;2.62;100.00;101773.81;1938501;74;26164;-84
2021/01/03 01:00:57;;;;;;;9.90;7.97;;;;;;;2.50;100.00;101778.25;1938373;74;26255;-84
2021/01/03 01:03:28;;;;;;;9.07;6.73;;;;;;;2.60;100.00;101778.16;1938547;74;26672;-83
2021/01/03 01:05:58;;;;;;;10.83;7.63;;;;;;;2.47;100.00;101776.78;1938522;74;26612;-85
2021/01/03 01:08:28;;;;;;;9.43;6.83;;;;;;;2.57;100.00;101779.93;1938648;73;26275;-84
2021/01/03 01:10:58;;;;;;;8.87;7.17;;;;;;;2.56;100.00;101782.37;1938584;74;26643;-84
2021/01/03 01:13:28;;;;;;;9.40;7.17;;;;;;;2.49;100.00;101784.77;1938621;73;26638;-84
2021/01/03 01:15:58;;;;;;;10.57;8.07;;;;;;;2.63;100.00;101783.22;1938512;74;26764;-84
2021/01/03 01:18:28;;;;;;;9.13;7.07;;;;;;;2.58;100.00;101783.52;1938657;73;26773;-85
2021/01/03 01:20:57;;;;;;;9.83;7.27;;;;;;;2.74;100.00;101783.95;1897311;75;26188;-84
2021/01/03 01:23:27;;;;;;;8.00;6.47;;;;;;;2.57;100.00;101784.05;1863730;75;26297;-84
2021/01/03 01:25:57;;;;;;;10.63;6.83;;;;;;;2.64;100.00;101787.66;1863696;76;26184;-83
2021/01/03 01:28:27;;;;;;;9.03;6.23;;;;;;;2.66;100.00;101788.80;1863774;77;26261;-84
2021/01/03 01:30:58;;;;;;;9.50;7.40;;;;;;;2.60;100.00;101791.88;1863666;77;26630;-84
2021/01/03 01:33:28;;;;;;;10.77;6.97;;;;;;;2.66;100.00;101780.05;1863629;75;26246;-85
2021/01/03 01:35:57;;;;;;;9.73;7.57;;;;;;;2.85;100.00;101784.38;1863724;76;26214;-85
2021/01/03 01:38:27;;;;;;;9.37;6.57;;;;;;;2.63;100.00;101782.37;1863693;77;26771;-85
2021/01/03 01:40:57;;;;;;;8.47;6.97;;;;;;;2.62;100.00;101782.89;1936361;73;26177;-84
2021/01/03 01:43:27;;;;;;;8.87;6.27;;;;;;;2.81;100.00;101782.59;1932350;74;26256;-85
2021/01/03 01:45:57;;;;;;;9.03;7.03;;;;;;;2.80;100.00;101782.80;1932391;74;26287;-84
2021/01/03 01:48:30;;;;;;;9.53;6.83;;;;;;;2.81;100.00;101779.00;1937678;73;26266;-85
2021/01/03 01:51:05;;;;;;;9.50;6.30;;;;;;;2.81;100.00;101778.47;1938528;74;26266;-83
2021/01/03 01:53:38;;;;;;;8.73;6.13;;;;;;;2.80;100.00;101774.56;1938594;74;26191;-85
2021/01/03 01:56:11;;;;;;;9.53;6.73;;;;;;;2.71;100.00;101778.89;1936922;74;26179;-83
2021/01/03 01:58:45;;;;;;;9.03;6.73;;;;;;;2.88;100.00;101792.17;1938519;74;26668;-83
2021/01/03 02:01:18;;;;;;;10.80;7.00;;;;;;;2.90;100.00;101787.34;1938577;74;26741;-82
2021/01/03 02:03:52;;;;;;;9.83;7.37;;;;;;;3.01;100.00;101785.31;1938546;74;26762;-83
2021/01/03 02:06:27;;;;;;;11.97;7.40;;;;;;;2.86;100.00;101781.95;1938585;73;26212;-82
2021/01/03 02:09:00;;;;;;;11.37;8.67;;;;;;;2.89;100.00;101784.27;1938601;73;26764;-82
2021/01/03 02:11:32;;;;;;;9.23;7.00;;;;;;;2.88;100.00;101784.80;1938472;74;26656;-82
2021/01/03 02:14:05;;;;;;;11.60;7.67;;;;;;;2.81;100.00;101783.11;1938548;73;26264;-84
2021/01/03 02:16:38;;;;;;;10.23;7.07;;;;;;;2.98;100.00;101785.22;1944748;73;26249;-83
2021/01/03 02:19:11;;;;;;;10.17;7.17;;;;;;;3.03;100.00;101785.44;1938555;73;26297;-83
2021/01/03 02:21:46;;;;;;;11.90;8.43;;;;;;;3.09;100.00;101780.45;1938793;73;26726;-83
2021/01/03 02:24:20;;;;;;;13.03;7.63;;;;;;;3.18;100.00;101785.19;1938440;72;26718;-82
2021/01/03 02:26:53;;;;;;;11.80;7.77;;;;;;;3.08;100.00;101788.36;1938535;74;26209;-82
2021/01/03 02:29:25;;;;;;;9.27;6.77;;;;;;;2.98;100.00;101792.61;1938489;73;26251;-83
2021/01/03 02:31:58;;;;;;;8.03;5.90;;;;;;;2.97;100.00;101782.16;1938599;73;26293;-84
2021/01/03 02:34:30;;;;;;;6.73;5.40;;;;;;;2.96;100.00;101776.87;1935918;73;26273;-83
2021/01/03 02:37:04;;;;;;;7.90;5.70;;;;;;;3.07;100.00;101790.81;1938521;74;26308;-84
2021/01/03 02:39:39;;;;;;;8.80;5.90;;;;;;;3.04;100.00;101791.73;1938573;74;26257;-84
2021/01/03 02:42:16;;;;;;;9.40;6.53;;;;;;;3.10;100.00;101793.64;1938799;74;26591;-83
2021/01/03 02:44:47;;;;;;;7.70;5.83;;;;;;;3.00;100.00;101792.70;1938606;73;26276;-84
2021/01/03 02:47:17;;;;;;;9.77;6.37;;;;;;;3.00;100.00;101791.84;1938624;74;26245;-83
2021/01/03 02:49:49;;;;;;;7.77;5.87;;;;;;;3.15;100.00;101789.73;1938254;74;26282;-83
2021/01/03 02:52:23;;;;;;;8.73;6.27;;;;;;;3.13;100.00;101787.72;1938464;74;26808;-84
2021/01/03 02:54:53;;;;;;;9.57;6.27;;;;;;;3.07;100.00;101788.06;1938443;74;26234;-83
2021/01/03 02:57:23;;;;;;;9.43;6.73;;;;;;;3.19;100.00;101789.63;1938513;74;26178;-82
2021/01/03 02:59:54;;;;;;;9.17;6.23;;;;;;;3.17;100.00;101784.86;1938520;74;26255;-82
2021/01/03 03:02:24;;;;;;;10.03;6.43;;;;;;;3.14;100.00;101782.55;1938469;74;26277;-83
2021/01/03 03:04:55;;;;;;;9.43;6.57;;;;;;;3.33;100.00;101777.56;1938484;74;26196;-82
2021/01/03 03:07:25;;;;;;;8.33;5.87;;;;;;;3.49;100.00;101775.72;1938408;73;26207;-82
2021/01/03 03:09:54;;;;;;;9.03;6.17;;;;;;;3.37;100.00;101773.33;1938485;74;26215;-82
2021/01/03 03:12:25;;;;;;;10.13;6.43;;;;;;;3.27;100.00;101772.07;1938476;73;26784;-82
2021/01/03 03:14:54;;;;;;;8.67;5.67;;;;;;;3.19;100.00;101770.41;1938465;74;26215;-82
2021/01/03 03:17:24;;;;;;;8.57;6.03;;;;;;;3.32;100.00;101769.53;1938521;74;26196;-82
2021/01/03 03:19:54;;;;;;;9.43;6.97;;;;;;;3.14;100.00;101771.05;1938659;73;26728;-82
2021/01/03 03:22:24;;;;;;;9.73;6.10;;;;;;;3.29;100.00;101769.97;1938536;72;26294;-82
2021/01/03 03:24:54;;;;;;;11.43;6.70;;;;;;;3.36;100.00;101772.16;1938626;74;26192;-85
2021/01/03 03:27:24;;;;;;;9.47;6.53;;;;;;;3.25;100.00;101770.94;1938716;74;26622;-83
2021/01/03 03:29:54;;;;;;;8.73;6.23;;;;;;;3.21;100.00;101767.75;1938646;73;26675;-83
2021/01/03 03:32:24;;;;;;;9.60;6.33;;;;;;;3.28;100.00;101760.04;1938670;74;26175;-82
2021/01/03 03:34:53;;;;;;;7.23;5.30;;;;;;;3.34;100.00;101763.31;1935972;73;26317;-82
2021/01/03 03:37:23;;;;;;;6.33;4.77;;;;;;;3.35;100.00;101758.95;1938629;73;26652;-83
2021/01/03 03:39:53;;;;;;;5.73;4.23;;;;;;;3.32;100.00;101758.55;1938631;74;26274;-82
2021/01/03 03:42:23;;;;;;;5.97;4.83;;;;;;;3.42;100.00;101753.46;1938616;73;26292;-82
2021/01/03 03:44:53;;;;;;;6.60;4.33;;;;;;;3.32;100.00;101759.39;1938562;74;26256;-82
2021/01/03 03:47:23;;;;;;;5.57;4.50;;;;;;;3.35;100.00;101758.95;1938607;73;26222;-82
2021/01/03 03:49:53;;;;;;;5.37;4.27;;;;;;;3.26;100.00;101755.27;1938589;74;26236;-81
2021/01/03 03:52:22;;;;;;;5.10;3.53;;;;;;;3.43;100.00;101749.10;1938586;74;26313;-81
2021/01/03 03:54:52;;;;;;;5.63;3.43;;;;;;;3.42;100.00;101743.32;1938507;74;26253;-81
2021/01/03 03:57:22;;;;;;;4.97;3.50;;;;;;;3.49;100.00;101751.52;1938536;74;26235;-81
2021/01/03 03:59:52;;;;;;;4.93;3.50;;;;;;;3.44;100.00;101745.83;1938619;74;26214;-81
2021/01/03 04:02:22;;;;;;;4.67;3.63;;;;;;;3.25;100.00;101750.34;1938538;73;26204;-81
2021/01/03 04:04:52;;;;;;;5.10;3.80;;;;;;;3.26;100.00;101747.89;1938564;74;26189;-82
2021/01/03 04:07:22;;;;;;;6.23;4.50;;;;;;;3.24;100.00;101745.91;1938602;74;26622;-83
2021/01/03 04:09:52;;;;;;;4.77;3.77;;;;;;;3.38;100.00;101744.78;1938554;74;26196;-82
2021/01/03 04:12:22;;;;;;;4.63;3.60;;;;;;;3.25;100.00;101739.89;1938667;74;26179;-83
2021/01/03 04:14:52;;;;;;;4.60;3.67;;;;;;;3.13;100.00;101735.03;1938549;74;26309;-80
2021/01/03 04:17:22;;;;;;;3.97;3.37;;;;;;;3.08;100.00;101732.64;1932314;74;26311;-82
2021/01/03 04:19:52;;;;;;;6.00;3.87;;;;;;;3.25;100.00;101736.62;1938885;74;26698;-82
2021/01/03 04:22:22;;;;;;;4.93;3.10;;;;;;;3.19;100.00;101734.72;1937762;73;26234;-83
2021/01/03 04:24:51;;;;;;;4.67;3.77;;;;;;;3.31;100.00;101739.00;1938694;73;26179;-81
2021/01/03 04:27:21;;;;;;;5.20;3.37;;;;;;;3.17;100.00;101738.19;1938580;74;26171;-82
2021/01/03 04:29:52;;;;;;;4.13;3.47;;;;;;;3.09;100.00;101731.03;1938632;73;26371;-82
2021/01/03 04:32:22;;;;;;;5.23;3.53;;;;;;;3.05;100.00;101740.77;1938565;74;26220;-82
2021/01/03 04:34:52;;;;;;;5.07;3.90;;;;;;;3.10;100.00;101736.00;1937472;73;26695;-83
2021/01/03 04:37:22;;;;;;;4.60;3.50;;;;;;;3.02;100.00;101741.20;1938867;73;26764;-83
2021/01/03 04:39:52;;;;;;;5.83;3.80;;;;;;;2.97;100.00;101741.52;1932401;74;26289;-83
2021/01/03 04:42:24;;;;;;;4.80;3.30;;;;;;;2.96;100.00;101737.07;1932717;74;26197;-83
2021/01/03 04:44:57;;;;;;;5.87;3.57;;;;;;;2.85;100.00;101739.95;1938665;74;26281;-83
2021/01/03 04:47:30;;;;;;;5.87;4.43;;;;;;;2.83;100.00;101746.69;1938653;73;26267;-82
2021/01/03 04:50:06;;;;;;;6.43;4.60;;;;;;;3.10;100.00;101741.48;1938631;74;26390;-82
2021/01/03 04:53:10;;;;;;;8.37;5.23;;;;;;;3.05;100.00;101739.91;1938577;74;26172;-82
2021/01/03 04:55:44;;;;;;;9.60;6.10;;;;;;;3.28;100.00;101738.07;1938484;74;26180;-82
2021/01/03 04:58:22;;;;;;;10.93;6.50;;;;;;;3.42;100.00;101741.95;1938572;74;26294;-81
2021/01/03 05:00:57;;;;;;;12.47;7.17;;;;;;;3.46;100.00;101739.61;1879043;74;931565;-82
2021/01/03 05:03:48;;;;;;;10.60;6.60;;;;;;;3.42;100.00;101739.73;1843723;77;26680;-81
2021/01/03 05:06:24;;;;;;;10.23;6.53;;;;;;;3.52;100.00;101737.34;1832941;77;26213;-81
2021/01/03 05:08:55;;;;;;;12.23;7.10;;;;;;;3.54;100.00;101736.09;1843745;77;26845;-81
2021/01/03 05:11:29;;;;;;;12.63;7.90;;;;;;;3.57;100.00;101735.64;1844353;77;26249;-82
2021/01/03 05:14:09;;;;;;;13.60;8.17;;;;;;;3.63;100.00;101722.95;1844279;78;26727;-82
2021/01/03 05:16:39;;;;;;;13.50;8.87;;;;;;;3.64;100.00;101732.86;1841151;78;26275;-82
2021/01/03 05:19:09;;;;;;;13.93;9.17;;;;;;;3.65;100.00;101734.02;1844319;77;26669;-82
2021/01/03 05:21:49;;;;;;;13.43;8.67;;;;;;;3.64;100.00;101732.33;1844300;78;26242;-82
2021/01/03 05:24:20;;;;;;;13.73;8.33;;;;;;;3.63;100.00;101729.82;1845024;76;26756;-83
2021/01/03 05:26:51;;;;;;;13.93;8.27;;;;;;;3.67;100.00;101735.19;1844272;78;26345;-82
2021/01/03 05:29:26;;;;;;;15.07;8.57;;;;;;;3.46;100.00;101737.70;1847692;77;26300;-84
2021/01/03 05:32:02;;;;;;;15.13;9.33;;;;;;;3.45;100.00;101737.91;1844386;78;26703;-82
2021/01/03 05:34:34;;;;;;;16.40;9.90;;;;;;;3.55;100.00;101745.98;1836193;78;26318;-84
2021/01/03 05:37:09;;;;;;;16.13;9.97;;;;;;;3.68;100.00;101743.19;1836045;77;26759;-84
2021/01/03 05:39:39;;;;;;;17.63;10.70;;;;;;;3.73;100.00;101745.28;1836153;78;26291;-84
2021/01/03 05:42:23;;;;;;;18.53;10.90;;;;;;;3.76;100.00;101742.66;1836070;78;26214;-84
2021/01/03 05:44:59;;;;;;;21.37;11.40;;;;;;;3.71;100.00;101742.45;1836182;78;26291;-83
2021/01/03 05:47:34;;;;;;;19.73;11.50;;;;;;;3.83;100.00;101748.42;1836052;78;26220;-83
2021/01/03 05:50:27;;;;;;;20.37;12.13;;;;;;;3.78;100.00;101753.72;1836183;78;26225;-84
2021/01/03 05:53:04;;;;;;;21.43;12.80;;;;;;;3.84;100.00;101756.98;1836164;78;26209;-83
2021/01/03 05:55:36;;;;;;;21.07;11.87;;;;;;;3.75;100.00;101750.58;1836048;78;26298;-83
2021/01/03 05:58:19;;;;;;;22.63;12.57;;;;;;;3.72;100.00;101758.73;1836119;78;26320;-85
2021/01/03 06:00:50;;;;;;;23.77;12.57;;;;;;;3.83;100.00;101758.56;1836164;78;26640;-84
2021/01/03 06:03:26;;;;;;;23.97;12.83;;;;;;;3.90;100.00;101762.11;1836171;78;26299;-85
2021/01/03 06:05:59;;;;;;;21.67;12.63;;;;;;;3.87;100.00;101757.06;1836154;78;26225;-85
2021/01/03 06:08:32;;;;;;;24.50;13.07;;;;;;;3.93;100.00;101763.07;1834301;78;26685;-84
2021/01/03 06:11:12;;;;;;;20.73;11.03;;;;;;;3.78;100.00;101767.46;1836235;78;26208;-84
2021/01/03 06:13:53;;;;;;;20.47;11.47;;;;;;;3.80;100.00;101768.10;1836163;78;26221;-84
2021/01/03 06:16:26;;;;;;;16.87;9.93;;;;;;;3.71;100.00;101760.31;1836071;78;26217;-84
2021/01/03 06:19:04;;;;;;;16.13;9.07;;;;;;;3.79;100.00;101765.03;1836110;78;26205;-83
2021/01/03 06:21:37;;;;;;;15.70;9.47;;;;;;;3.83;100.00;101766.28;1836132;78;26773;-82
2021/01/03 06:24:12;;;;;;;15.57;9.10;;;;;;;3.76;100.00;101768.75;1836098;76;26261;-85
2021/01/03 06:26:45;;;;;;;18.00;10.23;;;;;;;3.93;100.00;101765.30;1836042;78;26656;-83
2021/01/03 06:29:23;;;;;;;15.70;8.67;;;;;;;3.84;100.00;101766.60;1836180;78;26201;-82
2021/01/03 06:32:09;;;;;;;18.43;9.73;;;;;;;3.82;100.00;101767.34;1834928;78;26730;-83
2021/01/03 06:34:43;;;;;;;13.90;8.50;;;;;;;3.80;100.00;101765.87;1834968;78;26664;-82
2021/01/03 06:37:16;;;;;;;16.57;9.83;;;;;;;3.93;100.00;101769.41;1835988;77;26254;-83
2021/01/03 06:39:51;;;;;;;15.67;8.87;;;;;;;3.91;100.00;101766.03;1835489;78;26805;-83
2021/01/03 06:42:48;;;;;;;16.00;10.13;;;;;;;3.85;100.00;101764.70;1835824;78;26225;-84
2021/01/03 06:45:51;;;;;;;16.63;10.00;;;;;;;3.98;100.00;101764.08;1835625;78;26286;-82
2021/01/03 06:48:51;;;;;;;18.60;10.30;;;;;;;4.05;100.00;101764.91;1836032;78;26287;-83
2021/01/03 06:51:43;;;;;;;18.97;10.57;;;;;;;4.05;100.00;101764.06;1836041;78;26213;-83
2021/01/03 06:54:40;;;;;;;16.77;9.50;;;;;;;3.97;100.00;101776.16;1835652;78;26675;-84
2021/01/03 06:57:39;;;;;;;17.20;9.73;;;;;;;4.00;100.00;101777.09;1835981;78;26213;-81
2021/01/03 07:00:19;;;;;;;16.70;10.03;;;;;;;4.03;100.00;101770.30;1835346;78;26775;-81
2021/01/03 07:02:53;;;;;;;16.33;9.40;;;;;;;4.07;100.00;101783.91;1836209;78;26202;-83
2021/01/03 07:05:23;;;;;;;17.57;10.17;;;;;;;4.06;100.00;101783.63;1836161;78;26213;-84
2021/01/03 07:08:03;;;;;;;15.63;9.87;;;;;;;4.06;100.00;101778.12;1836218;78;26319;-85
2021/01/03 07:10:40;;;;;;;20.03;10.73;;;;;;;4.23;100.00;101784.80;1836142;78;26279;-84
2021/01/03 07:13:39;;;;;;;16.63;10.60;;;;;;;4.16;100.00;101782.59;1836162;78;26660;-84
2021/01/03 07:16:35;;;;;;;17.40;10.13;;;;;;;4.17;100.00;101788.41;1836170;78;26298;-85
2021/01/03 07:19:08;;;;;;;16.20;9.33;;;;;;;4.18;100.00;101790.11;1825258;78;26322;-84
2021/01/03 07:21:43;;;;;;;17.03;9.23;;;;;;;4.25;100.00;101790.90;1835528;78;26201;-84
2021/01/03 07:24:32;;;;;;;15.53;9.77;;;;;;;4.21;100.00;101782.78;1836101;76;26244;-84
2021/01/03 07:27:33;;;;;;;16.40;10.03;;;;;;;4.22;100.00;101789.98;1836181;78;26660;-83
2021/01/03 07:30:42;;;;;;;16.50;9.77;;;;;;;4.21;100.00;101789.66;1835969;78;26641;-82
2021/01/03 07:33:36;;;;;;;15.63;9.73;;;;;;;4.20;100.00;101790.72;1835967;78;26299;-82
2021/01/03 07:36:26;;;;;;;15.03;9.70;;;;;;;4.23;100.00;101793.57;1836008;78;26217;-82
2021/01/03 07:39:09;;;;;;;16.23;9.90;;;;;;;4.24;100.00;101790.58;1836124;78;26323;-83
2021/01/03 07:41:41;;;;;;;17.33;10.17;;;;;;;4.20;100.00;101799.48;1835959;78;26213;-85
2021/01/03 07:44:13;;;;;;;14.80;9.93;;;;;;;4.30;100.00;101788.34;1836140;78;26218;-84
2021/01/03 07:46:46;;;;;;;15.07;9.53;;;;;;;4.20;100.00;101792.09;1836273;78;26264;-85
2021/01/03 07:49:46;;;;;;;15.40;9.20;;;;;;;4.09;100.00;101793.64;1836150;78;26325;-84
2021/01/03 07:52:41;;;;;;;13.83;9.50;;;;;;;4.12;100.00;101790.97;1836045;78;26213;-84
2021/01/03 07:55:18;;;;;;;15.80;9.87;;;;;;;4.28;100.00;101792.38;1836205;78;26661;-84
2021/01/03 07:57:49;;;;;;;13.77;10.03;;;;;;;4.17;100.00;101793.91;1835091;78;26224;-83
2021/01/03 08:00:22;;;;;;;15.33;10.37;;;;;;;4.22;100.00;101794.10;1836102;78;26353;-84
2021/01/03 08:02:55;;;;;;;15.90;10.73;;;;;;;4.30;100.00;101797.11;1836144;78;26212;-83
2021/01/03 08:05:26;;;;;;;17.10;10.87;;;;;;;4.31;100.00;101790.55;1836126;78;26283;-83
2021/01/03 08:08:05;;;;;;;21.90;12.03;;;;;;;4.24;100.00;101790.58;1836133;78;26743;-83
2021/01/03 08:10:35;;;;;;;19.27;11.00;;;;;;;4.22;100.00;101792.73;1836231;78;26283;-83
2021/01/03 08:13:09;;;;;;;15.83;10.60;;;;;;;4.16;100.00;101797.72;1836304;78;26267;-84
2021/01/03 08:15:40;;;;;;;15.60;10.93;;;;;;;4.22;100.00;101799.59;1836217;78;26633;-82
2021/01/03 08:18:14;;;;;;;16.93;11.03;;;;;;;4.38;100.00;101800.45;1836141;78;26702;-82
2021/01/03 08:20:44;;;;;;;16.40;11.33;;;;;;;4.44;100.00;101802.33;1836264;78;26644;-83
2021/01/03 08:23:19;;;;;;;17.20;11.60;;;;;;;4.32;100.00;101795.00;1836113;76;26300;-83
2021/01/03 08:25:49;;;;;;;17.40;11.40;;;;;;;4.30;100.00;101798.48;1836263;78;26218;-85
2021/01/03 08:28:23;;;;;;;21.37;13.13;;;;;;;4.31;100.00;101805.69;1836375;78;26267;-84
2021/01/03 08:30:53;;;;;;;17.77;12.00;;;;;;;4.39;100.00;101805.42;1836317;78;26298;-84
2021/01/03 08:33:26;;;;;;;17.93;11.67;;;;;;;4.38;100.00;101811.98;1836300;78;26272;-84
2021/01/03 08:35:56;;;;;;;17.57;11.30;;;;;;;4.35;100.00;101810.52;1836173;78;26219;-83
2021/01/03 08:38:30;;;;;;;15.00;11.10;;;;;;;4.35;100.00;101803.65;1836131;76;26463;-83
2021/01/03 08:41:07;;;;;;;16.07;11.37;;;;;;;4.51;100.00;101807.23;1836127;78;26224;-83
2021/01/03 08:43:40;;;;;;;17.37;11.70;;;;;;;4.50;100.00;101808.83;1836086;78;26284;-83
2021/01/03 08:46:10;;;;;;;16.60;11.07;;;;;;;4.54;100.00;101814.19;1836268;78;26664;-82
2021/01/03 08:48:41;;;;;;;15.97;10.10;;;;;;;4.50;100.00;101813.80;1836275;78;26213;-81
2021/01/03 08:51:14;;;;;;;13.53;9.87;;;;;;;4.61;100.00;101819.14;1836098;78;26292;-82
2021/01/03 08:53:44;;;;;;;15.80;10.57;;;;;;;4.48;100.00;101822.83;1836203;78;26210;-82
2021/01/03 08:56:17;;;;;;;17.00;10.07;;;;;;;4.39;100.00;101824.14;1836181;78;26233;-82
2021/01/03 08:58:48;;;;;;;16.03;10.57;;;;;;;4.49;100.00;101825.86;1836108;78;26221;-83
2021/01/03 09:01:21;;;;;;;14.23;10.20;;;;;;;4.56;100.00;101826.68;1836089;78;26376;-85
2021/01/03 09:03:54;;;;;;;13.77;10.20;;;;;;;4.47;100.00;101833.52;1836232;78;26210;-82
2021/01/03 09:06:24;;;;;;;13.73;9.80;;;;;;;4.59;100.00;101835.02;1836463;78;26624;-82
2021/01/03 09:08:55;;;;;;;14.93;9.60;;;;;;;4.62;100.00;101835.12;1836186;78;26310;-82
2021/01/03 09:11:28;;;;;;;13.93;9.90;;;;;;;4.50;100.00;101831.68;1836153;78;26221;-82
2021/01/03 09:14:01;;;;;;;15.80;9.30;;;;;;;4.49;100.00;101837.42;1835951;78;26220;-83
2021/01/03 09:16:35;;;;;;;13.63;9.60;;;;;;;4.52;100.00;101837.82;1835298;78;26640;-81
2021/01/03 09:19:12;;;;;;;13.63;10.13;;;;;;;4.57;100.00;101844.03;1835680;78;26622;-82
2021/01/03 09:21:51;;;;;;;14.40;9.50;;;;;;;4.64;100.00;101843.98;1836135;78;26632;-82
2021/01/03 09:24:25;;;;;;;12.33;9.43;;;;;;;4.60;100.00;101844.96;1836137;76;26257;-83
2021/01/03 09:26:57;;;;;;;11.97;8.67;;;;;;;4.55;100.00;101844.25;1844009;77;26296;-83
2021/01/03 09:29:30;;;;;;;11.17;8.43;;;;;;;4.63;100.00;101848.64;1844337;78;26232;-80
2021/01/03 09:32:10;;;;;;;11.77;8.13;;;;;;;4.62;100.00;101851.07;1835992;78;26209;-83
2021/01/03 09:34:51;;;;;;;14.13;9.03;;;;;;;4.67;100.00;101851.25;1836004;78;26296;-82
2021/01/03 09:37:26;;;;;;;10.43;7.27;;;;;;;4.72;100.00;101854.72;1835905;78;26221;-81
2021/01/03 09:40:13;;;;;;;11.20;8.13;;;;;;;4.61;100.00;101849.94;1835990;78;26357;-85
2021/01/03 09:42:48;;;;;;;12.50;8.30;;;;;;;4.70;100.00;101854.11;1836130;78;26294;-85
2021/01/03 09:45:46;;;;;;;10.73;8.43;;;;;;;4.79;100.00;101859.10;1836231;78;26206;-81
2021/01/03 09:48:36;;;;;;;10.63;7.10;;;;;;;4.81;100.00;101856.14;1809575;78;26305;-82
2021/01/03 09:51:33;;;;;;;9.77;7.73;;;;;;;4.90;100.00;101859.78;1836086;78;26205;-83
2021/01/03 09:54:09;;;;;;;9.17;6.87;;;;;;;4.90;100.00;101861.16;1831445;78;26213;-82
2021/01/03 09:56:41;;;;;;;11.73;7.60;;;;;;;4.99;100.00;101858.98;1836026;78;26287;-80
2021/01/03 09:59:16;;;;;;;12.43;8.17;;;;;;;5.05;100.00;101864.94;1836094;78;26287;-81
2021/01/03 10:01:48;;;;;;;8.07;6.70;;;;;;;5.01;100.00;101854.92;1836082;78;26225;-81
2021/01/03 10:04:23;;;;;;;9.97;6.70;;;;;;;5.03;100.00;101866.56;1836098;78;26271;-80
2021/01/03 10:06:55;;;;;;;10.23;7.87;;;;;;;5.01;100.00;101861.80;1836139;78;26213;-81
2021/01/03 10:09:34;;;;;;;9.00;6.97;;;;;;;5.07;100.00;101865.58;1836125;78;26225;-78
2021/01/03 10:12:31;;;;;;;8.17;6.77;;;;;;;5.09;100.00;101862.61;1836135;78;26284;-79
2021/01/03 10:15:07;;;;;;;8.30;6.97;;;;;;;5.17;100.00;101864.55;1836304;78;26279;-78
2021/01/03 10:17:38;;;;;;;7.93;6.63;;;;;;;5.18;100.00;101868.16;1836224;78;26343;-79
2021/01/03 10:20:19;;;;;;;11.23;6.50;;;;;;;5.09;100.00;101866.74;1836235;78;26229;-78
2021/01/03 10:22:48;;;;;;;8.57;7.23;;;;;;;5.21;100.00;101876.80;1834050;76;26750;-76
2021/01/03 10:25:19;;;;;;;10.00;7.50;;;;;;;5.29;100.00;101874.30;1836162;78;26205;-76
2021/01/03 10:28:09;;;;;;;7.30;6.40;;;;;;;5.26;100.00;101870.63;1836058;78;26704;-76
2021/01/03 10:30:39;;;;;;;7.87;6.40;;;;;;;5.32;100.00;101865.57;1836032;78;26629;-78
2021/01/03 10:33:10;;;;;;;7.67;5.93;;;;;;;5.26;100.00;101865.11;1836139;78;26287;-78
2021/01/03 10:35:42;;;;;;;7.37;6.53;;;;;;;5.38;100.00;101872.95;1836138;78;26302;-78
2021/01/03 10:38:12;;;;;;;6.37;5.70;;;;;;;5.40;100.00;101872.17;1835967;78;26241;-77
2021/01/03 10:40:42;;;;;;;8.90;6.50;;;;;;;5.36;100.00;101869.03;1835948;76;26419;-77
2021/01/03 10:43:14;;;;;;;7.53;6.00;;;;;;;5.39;100.00;101870.51;1836011;78;26289;-78
2021/01/03 10:45:43;;;;;;;7.20;5.83;;;;;;;5.54;100.00;101866.00;1836043;78;26201;-78
2021/01/03 10:48:14;;;;;;;7.33;5.20;;;;;;;5.67;100.00;101861.73;1836006;78;26243;-78
2021/01/03 10:50:46;;;;;;;6.47;5.37;;;;;;;5.61;100.00;101860.72;1836033;78;26216;-78
2021/01/03 10:53:17;;;;;;;6.23;5.63;;;;;;;5.82;100.00;101854.77;1836035;78;26213;-78
2021/01/03 10:55:47;;;;;;;6.93;5.73;;;;;;;6.01;100.00;101854.27;1836022;78;26276;-78
2021/01/03 10:58:17;;;;;;;5.70;5.10;;;;;;;6.24;100.00;101854.41;1835987;78;26280;-78
2021/01/03 11:00:48;;;;;;;5.90;4.90;;;;;;;6.08;100.00;101847.28;1835994;78;26295;-78
2021/01/03 11:03:18;;;;;;;5.90;5.20;;;;;;;6.14;100.00;101847.75;1836095;78;26268;-79
2021/01/03 11:05:48;;;;;;;8.03;5.33;;;;;;;6.06;100.00;101850.82;1836167;78;26651;-78
2021/01/03 11:08:19;;;;;;;5.57;4.60;;;;;;;5.99;100.00;101858.34;1834551;78;26315;-78
2021/01/03 11:10:50;;;;;;;6.97;5.10;;;;;;;5.79;100.00;101854.39;1836103;78;26217;-78
2021/01/03 11:13:20;;;;;;;5.97;5.17;;;;;;;5.80;100.00;101862.44;1836087;78;26270;-78
2021/01/03 11:15:54;;;;;;;6.47;5.10;;;;;;;5.85;100.00;101854.33;1836125;78;26755;-78
2021/01/03 11:18:24;;;;;;;5.70;5.17;;;;;;;5.80;100.00;101856.08;1836129;78;26303;-78
2021/01/03 11:20:54;;;;;;;6.13;5.27;;;;;;;5.84;100.00;101855.92;1836064;78;26664;-78
2021/01/03 11:23:25;;;;;;;6.73;5.20;;;;;;;5.69;100.00;101851.34;1836085;76;26241;-78
2021/01/03 11:25:55;;;;;;;5.70;5.00;;;;;;;5.74;100.00;101852.31;1836075;78;26699;-78
2021/01/03 11:28:34;;;;;;;5.67;4.53;;;;;;;5.82;100.00;101860.81;1835986;78;26217;-79
2021/01/03 11:31:05;;;;;;;6.87;5.10;;;;;;;5.81;100.00;101864.13;1835952;78;26221;-79
2021/01/03 11:33:35;;;;;;;5.33;4.07;;;;;;;5.82;100.00;101858.90;1836009;78;26389;-79
2021/01/03 11:36:11;;;;;;;5.40;4.83;;;;;;;5.84;100.00;101856.77;1835953;78;26209;-78
2021/01/03 11:38:41;;;;;;;5.87;4.53;;;;;;;5.94;100.00;101860.41;1835920;78;26225;-78
2021/01/03 11:41:13;;;;;;;5.70;4.50;;;;;;;5.88;100.00;101866.30;1836042;78;26249;-79
2021/01/03 11:43:44;;;;;;;5.97;5.27;;;;;;;5.93;100.00;101860.95;1836082;78;26665;-78
2021/01/03 11:46:14;;;;;;;6.63;4.97;;;;;;;5.97;100.00;101854.95;1836116;78;26304;-78
2021/01/03 11:48:45;;;;;;;5.20;4.37;;;;;;;5.99;100.00;101856.41;1836095;78;26221;-79
2021/01/03 11:51:15;;;;;;;6.30;5.03;;;;;;;6.00;100.00;101851.20;1836098;78;26735;-78